createdAt,value
2023-02-19T00:04:54.944Z,35.92
2023-02-19T00:09:59.674Z,35.15
2023-02-19T00:15:04.300Z,35.28
2023-02-19T00:20:09.316Z,35.89
2023-02-19T00:25:15.168Z,35.56
2023-02-19T00:30:19.809Z,33.75
2023-02-19T00:35:25.380Z,33.67
2023-02-19T00:40:29.963Z,33.22
2023-02-19T00:45:36.144Z,32.03
2023-02-19T00:50:40.720Z,31.77
2023-02-19T00:55:45.392Z,30.32
2023-02-19T01:00:49.934Z,30.36
2023-02-19T01:05:55.808Z,30.18
2023-02-19T01:11:02.512Z,31.24
2023-02-19T01:16:19.549Z,32.22
2023-02-19T01:21:27.717Z,29.41
2023-02-19T01:26:34.011Z,29.41
2023-02-19T01:31:43.438Z,30.33
2023-02-19T01:36:48.222Z,28.63
2023-02-19T01:41:52.912Z,30.54
2023-02-19T01:47:00.184Z,27.86
2023-02-19T01:52:17.733Z,27.40
2023-02-19T01:57:26.787Z,25.90
2023-02-19T02:02:33.146Z,27.29
2023-02-19T02:07:59.124Z,25.78
2023-02-19T02:13:03.868Z,26.05
2023-02-19T02:18:36.651Z,25.04
2023-02-19T02:23:59.757Z,24.65
2023-02-19T02:29:43.490Z,25.86
2023-02-19T02:34:57.751Z,26.09
2023-02-19T02:40:06.336Z,24.54
2023-02-19T02:45:40.398Z,24.62
2023-02-19T02:51:17.698Z,23.81
2023-02-19T02:56:30.704Z,23.66
2023-02-19T03:02:04.382Z,24.08
2023-02-19T03:07:11.313Z,24.04
2023-02-19T03:12:37.308Z,22.98
2023-02-19T03:18:10.982Z,23.36
2023-02-19T03:23:19.205Z,23.56
2023-02-19T03:28:48.691Z,22.79
2023-02-19T03:33:59.311Z,22.42
2023-02-19T03:39:13.812Z,22.75
2023-02-19T03:44:46.634Z,22.90
2023-02-19T03:50:06.371Z,21.62
2023-02-19T03:55:15.210Z,22.47
2023-02-19T04:00:35.887Z,22.06
2023-02-19T04:05:49.516Z,22.53
2023-02-19T04:10:57.035Z,22.78
2023-02-19T04:16:10.602Z,22.05
2023-02-19T04:21:16.214Z,21.83
2023-02-19T04:26:23.012Z,21.24
2023-02-19T04:31:30.975Z,21.99
2023-02-19T04:36:37.550Z,21.96
2023-02-19T04:41:42.228Z,21.48
2023-02-19T04:46:46.874Z,22.04
2023-02-19T04:51:52.867Z,22.18
2023-02-19T04:56:58.731Z,21.57
2023-02-19T05:02:03.654Z,21.82
2023-02-19T05:07:08.360Z,21.24
2023-02-19T05:12:12.886Z,20.99
2023-02-19T05:17:17.477Z,21.38
2023-02-19T05:22:23.268Z,21.22
2023-02-19T05:27:28.395Z,21.28
2023-02-19T05:32:33.732Z,21.00
2023-02-19T05:37:38.475Z,23.82
2023-02-19T05:42:44.183Z,20.60
2023-02-19T05:47:50.312Z,20.97
2023-02-19T05:52:56.706Z,21.24
2023-02-19T05:58:03.794Z,21.11
2023-02-19T06:03:10.044Z,22.41
2023-02-19T06:08:16.888Z,21.61
2023-02-19T06:13:21.615Z,21.36
2023-02-19T06:18:33.996Z,22.04
2023-02-19T06:23:41.041Z,21.22
2023-02-19T06:28:47.344Z,21.23
2023-02-19T06:33:52.623Z,20.81
2023-02-19T06:39:02.371Z,21.18
2023-02-19T06:44:08.592Z,21.82
2023-02-19T06:49:13.580Z,20.80
2023-02-19T06:54:18.750Z,21.40
2023-02-19T06:59:24.110Z,21.15
2023-02-19T07:04:29.462Z,20.49
2023-02-19T07:09:35.275Z,21.07
2023-02-19T07:14:40.450Z,20.91
2023-02-19T07:19:45.785Z,20.70
2023-02-19T07:24:51.819Z,20.87
2023-02-19T07:29:57.145Z,20.95
2023-02-19T07:35:02.125Z,21.05
2023-02-19T07:40:08.827Z,21.28
2023-02-19T07:45:13.616Z,21.59
2023-02-19T07:50:18.755Z,22.08
2023-02-19T07:55:23.692Z,22.09
2023-02-19T08:00:29.474Z,21.68
2023-02-19T08:05:42.814Z,22.33
2023-02-19T08:11:06.290Z,21.54
2023-02-19T08:16:21.792Z,21.95
2023-02-19T08:21:34.148Z,22.04
2023-02-19T08:26:39.646Z,21.73
2023-02-19T08:31:45.083Z,22.70
2023-02-19T08:36:50.279Z,23.32
2023-02-19T08:41:57.151Z,23.02
2023-02-19T08:47:02.588Z,23.22
2023-02-19T08:52:07.885Z,24.06
2023-02-19T08:57:13.139Z,22.54
2023-02-19T09:02:18.444Z,23.31
2023-02-19T09:07:24.390Z,23.74
2023-02-19T09:12:29.369Z,23.50
2023-02-19T09:17:35.278Z,24.95
2023-02-19T09:22:40.564Z,24.10
2023-02-19T09:27:48.536Z,23.89
2023-02-19T09:32:53.982Z,24.90
2023-02-19T09:38:04.875Z,25.06
2023-02-19T09:43:20.287Z,26.26
2023-02-19T09:48:25.508Z,24.95
2023-02-19T09:53:42.404Z,25.71
2023-02-19T09:58:54.055Z,25.26
2023-02-19T10:04:00.234Z,24.99
2023-02-19T10:09:29.271Z,26.33
2023-02-19T10:14:43.793Z,26.45
2023-02-19T10:19:49.140Z,25.10
2023-02-19T10:24:57.369Z,24.58
2023-02-19T10:30:03.440Z,25.16
2023-02-19T10:35:17.763Z,25.23
2023-02-19T10:40:26.512Z,25.99
2023-02-19T10:45:44.344Z,26.36
2023-02-19T10:50:58.472Z,27.44
2023-02-19T10:56:18.214Z,27.65
2023-02-19T11:01:27.117Z,26.74
2023-02-19T11:06:32.935Z,26.02
2023-02-19T11:11:42.080Z,25.88
2023-02-19T11:16:59.665Z,25.65
2023-02-19T11:22:40.320Z,26.27
2023-02-19T11:28:05.069Z,26.95
2023-02-19T11:33:30.411Z,26.49
2023-02-19T11:38:38.432Z,26.46
2023-02-19T11:44:10.058Z,26.70
2023-02-19T11:49:24.995Z,27.54
2023-02-19T11:54:43.038Z,26.33
2023-02-19T12:00:03.117Z,26.88
2023-02-19T12:05:21.282Z,27.08
2023-02-19T12:10:29.373Z,27.49
2023-02-19T12:15:46.001Z,27.48
2023-02-19T12:21:03.734Z,26.73
2023-02-19T12:26:21.178Z,27.43
2023-02-19T12:31:58.884Z,28.13
2023-02-19T12:37:22.903Z,27.67
2023-02-19T12:43:04.912Z,27.62
2023-02-19T12:48:21.284Z,27.63
2023-02-19T12:53:47.553Z,28.36
2023-02-19T12:58:58.516Z,27.04
2023-02-19T13:05:03.207Z,27.59
2023-02-19T13:10:24.286Z,27.20
2023-02-19T13:15:50.849Z,27.44
2023-02-19T13:20:59.663Z,27.41
2023-02-19T13:26:26.427Z,27.59
2023-02-19T13:31:51.531Z,27.45
2023-02-19T13:36:58.065Z,27.92
2023-02-19T13:42:05.449Z,28.44
2023-02-19T13:47:52.254Z,28.85
2023-02-19T13:53:01.191Z,28.76
2023-02-19T13:58:37.981Z,28.87
2023-02-19T14:04:12.276Z,29.19
2023-02-19T14:09:40.906Z,29.36
2023-02-19T14:15:01.339Z,29.34
2023-02-19T14:20:36.316Z,29.57
2023-02-19T14:26:06.283Z,29.43
2023-02-19T14:31:34.031Z,29.56
2023-02-19T14:36:46.796Z,29.55
2023-02-19T14:41:58.705Z,29.71
2023-02-19T14:47:17.942Z,30.01
2023-02-19T14:52:33.598Z,29.96
2023-02-19T14:57:43.019Z,30.32
2023-02-19T15:02:50.452Z,30.81
2023-02-19T15:07:59.935Z,31.33
2023-02-19T15:13:16.350Z,31.49
2023-02-19T15:18:29.639Z,30.94
2023-02-19T15:23:37.301Z,31.47
2023-02-19T15:28:42.167Z,31.06
2023-02-19T15:33:55.718Z,31.60
2023-02-19T15:39:03.812Z,30.81
2023-02-19T15:44:27.623Z,31.28
2023-02-19T15:49:53.419Z,31.02
2023-02-19T15:55:41.760Z,30.86
2023-02-19T16:01:02.068Z,31.50
2023-02-19T16:06:07.808Z,31.50
2023-02-19T16:11:26.752Z,32.28
2023-02-19T16:16:40.324Z,31.80
2023-02-19T16:21:46.074Z,31.38
2023-02-19T16:26:51.671Z,31.22
2023-02-19T16:32:06.867Z,31.82
2023-02-19T16:37:58.981Z,30.95
2023-02-19T16:43:24.292Z,31.14
2023-02-19T16:48:30.396Z,31.30
2023-02-19T16:53:36.658Z,31.67
2023-02-19T16:58:42.131Z,31.43
2023-02-19T17:03:49.042Z,32.02
2023-02-19T17:08:55.488Z,31.73
2023-02-19T17:14:00.280Z,31.54
2023-02-19T17:19:06.823Z,31.93
2023-02-19T17:24:12.525Z,31.66
2023-02-19T17:29:19.671Z,31.72
2023-02-19T17:34:24.898Z,31.63
2023-02-19T17:39:29.939Z,31.26
2023-02-19T17:44:34.892Z,31.39
2023-02-19T17:49:39.668Z,30.90
2023-02-19T17:54:46.110Z,31.02
2023-02-19T17:59:51.159Z,31.09
2023-02-19T18:04:56.555Z,31.33
2023-02-19T18:10:01.509Z,30.82
2023-02-19T18:15:06.840Z,30.88
2023-02-19T18:20:15.895Z,31.17
2023-02-19T18:25:22.253Z,31.60
2023-02-19T18:30:27.648Z,31.30
2023-02-19T18:35:34.780Z,31.39
2023-02-19T18:40:39.473Z,31.45
2023-02-19T18:45:46.606Z,31.19
2023-02-19T18:50:51.706Z,31.63
2023-02-19T18:55:58.123Z,31.35
2023-02-19T19:01:03.197Z,31.43
2023-02-19T19:06:08.470Z,31.18
2023-02-19T19:11:14.467Z,30.69
2023-02-19T19:16:18.977Z,31.27
2023-02-19T19:21:24.956Z,31.59
2023-02-19T19:26:29.545Z,30.81
2023-02-19T19:31:38.658Z,31.44
2023-02-19T19:36:43.920Z,31.23
2023-02-19T19:41:55.716Z,31.16
2023-02-19T19:47:00.834Z,31.30
2023-02-19T19:52:07.149Z,30.93
2023-02-19T19:57:12.803Z,31.26
2023-02-19T20:02:17.365Z,30.63
2023-02-19T20:07:23.295Z,30.71
2023-02-19T20:12:28.996Z,31.44
2023-02-19T20:17:34.111Z,31.10
2023-02-19T20:22:40.526Z,31.26
2023-02-19T20:27:46.490Z,31.01
2023-02-19T20:32:51.162Z,31.34
2023-02-19T20:37:56.861Z,31.42
2023-02-19T20:43:03.324Z,31.29
2023-02-19T20:48:08.027Z,31.28
2023-02-19T20:53:13.334Z,31.33
2023-02-19T20:58:19.832Z,31.53
2023-02-19T21:03:25.576Z,31.64
2023-02-19T21:08:30.612Z,31.09
2023-02-19T21:13:36.411Z,32.05
2023-02-19T21:18:41.906Z,31.51
2023-02-19T21:23:47.504Z,32.37
2023-02-19T21:28:57.088Z,32.00
2023-02-19T21:34:02.137Z,32.33
2023-02-19T21:39:09.839Z,32.72
2023-02-19T21:44:16.290Z,33.01
2023-02-19T21:49:21.429Z,33.29
2023-02-19T21:54:27.701Z,34.10
2023-02-19T21:59:33.771Z,34.25
2023-02-19T22:04:39.164Z,33.63
2023-02-19T22:09:46.381Z,35.00
2023-02-19T22:14:51.536Z,35.42
2023-02-19T22:19:56.664Z,35.69
2023-02-19T22:25:01.795Z,35.15
2023-02-19T22:30:07.416Z,35.37
2023-02-19T22:35:14.278Z,35.67
2023-02-19T22:40:22.519Z,36.21
2023-02-19T22:45:27.836Z,35.82
2023-02-19T22:50:33.063Z,35.99
2023-02-19T22:55:39.597Z,36.09
2023-02-19T23:00:44.762Z,36.44
2023-02-19T23:05:50.074Z,36.85
2023-02-19T23:10:55.189Z,36.27
2023-02-19T23:16:00.468Z,35.92
2023-02-19T23:21:06.918Z,35.66
2023-02-19T23:26:12.901Z,35.43
2023-02-19T23:31:19.164Z,35.49
2023-02-19T23:36:26.052Z,35.67
2023-02-19T23:41:31.160Z,35.75
2023-02-19T23:46:36.342Z,35.76
2023-02-19T23:51:42.083Z,36.61
2023-02-19T23:56:47.357Z,35.96
